TAF KGCK
KGCK 270521Z 2706/2806 VRB06KT P6SM SKC FM271100 35013KT P6SM FEW250 FM271400 01019G30KT P6SM FEW250 FM272200 02014KT P6SM FEW250 FM280000 02007KT P6SM SKC=
METAR KGCK
WC KGCK
WS KGCK
WV KGCK